Terminal Aerodrome Forecast
Issued by NWS

Current Version | Previous Version | Graphics & Text | Print | Product List | Glossary On
Versions: 1 2 3 4 5 6 7 8 9 10 11 12 13 14 15 16 17 18 19 20 21 22
000
FTUS41 KILN 210535
TAFLUK
TAF
KLUK 210535Z 2106/2206 20008KT P6SM SCT250 WS020/22040KT
     FM211400 21012G22KT P6SM BKN200
     FM212200 23010KT P6SM BKN120
     FM220300 30012KT P6SM BKN050=

USA.gov is the U.S. government's official web portal to all federal, state and local government web resources and services.